Time;durP1;ratioP1;P1;durP2;ratioP2;P2;SDS_P1;SDS_P2;PMS_P1;PMS_P2;Temp;Humidity;BMP_temperature;BMP_pressure;BME280_temperature;BME280_humidity;BME280_pressure;Samples;Min_cycle;Max_cycle;Signal;HPM_P1;HPM_P2
2022/01/04 00:00:53;;;;;;;3.58;1.65;;;;;;;7.77;91.81;99755.06;5000268;28;20072;-81
2022/01/04 00:03:20;;;;;;;2.90;1.80;;;;;;;7.80;91.47;99752.97;4999738;28;20054;-79
2022/01/04 00:05:47;;;;;;;3.65;1.70;;;;;;;7.66;92.56;99735.34;5001983;28;20054;-81
2022/01/04 00:08:13;;;;;;;5.10;2.15;;;;;;;7.71;92.14;99740.09;5002815;28;20092;-83
2022/01/04 00:10:41;;;;;;;2.95;1.65;;;;;;;7.74;92.63;99734.56;5009124;28;20046;-83
2022/01/04 00:13:24;;;;;;;3.80;2.15;;;;;;;7.70;92.51;99722.81;5008567;28;20046;-83
2022/01/04 00:15:52;;;;;;;2.00;1.63;;;;;;;7.60;92.70;99723.78;5008292;28;20140;-82
2022/01/04 00:18:19;;;;;;;2.15;1.58;;;;;;;7.48;93.46;99724.25;5007526;28;20109;-82
2022/01/04 00:20:46;;;;;;;1.75;1.60;;;;;;;7.47;93.80;99717.41;5007423;28;20157;-83
2022/01/04 00:23:13;;;;;;;2.60;1.77;;;;;;;7.53;93.90;99717.59;5007872;28;20097;-81
2022/01/04 00:25:41;;;;;;;2.85;2.13;;;;;;;7.54;93.66;99701.00;5011389;28;20054;-82
2022/01/04 00:28:08;;;;;;;2.05;1.67;;;;;;;7.42;93.74;99689.25;5013352;28;20607;-83
2022/01/04 00:30:36;;;;;;;2.25;1.70;;;;;;;7.55;93.38;99689.63;5009769;28;20073;-82
2022/01/04 00:33:04;;;;;;;3.67;1.73;;;;;;;7.56;92.58;99685.22;5014456;28;20054;-82
2022/01/04 00:35:30;;;;;;;1.70;1.30;;;;;;;7.47;93.12;99668.78;5013896;28;20076;-82
2022/01/04 00:37:57;;;;;;;2.80;1.73;;;;;;;7.46;93.91;99680.16;5003669;28;20077;-82
2022/01/04 00:40:24;;;;;;;2.95;1.40;;;;;;;7.41;93.75;99666.00;5003291;28;20157;-82
2022/01/04 00:42:55;;;;;;;2.85;1.73;;;;;;;7.48;93.55;99670.41;5001973;28;20061;-81
2022/01/04 00:45:22;;;;;;;3.67;1.63;;;;;;;7.42;93.90;99658.03;5002612;28;20054;-82
2022/01/04 00:50:30;;;;;;;2.03;1.23;;;;;;;7.36;93.97;99666.47;5003451;28;20077;-82
2022/01/04 00:52:58;;;;;;;1.58;1.20;;;;;;;7.32;94.08;99654.75;5001577;28;20129;-82
2022/01/04 00:55:25;;;;;;;2.13;1.35;;;;;;;7.35;93.83;99646.63;5001734;28;20066;-82
2022/01/04 00:57:53;;;;;;;3.13;1.67;;;;;;;7.45;93.76;99646.47;5003504;28;20050;-80
2022/01/04 01:00:20;;;;;;;2.50;1.65;;;;;;;7.40;93.84;99633.94;5002896;28;20128;-82
2022/01/04 01:02:51;;;;;;;1.85;1.40;;;;;;;7.43;93.92;99632.81;5000036;28;20442;-82
2022/01/04 01:05:18;;;;;;;3.05;1.45;;;;;;;7.38;94.30;99627.25;5000227;28;20113;-82
2022/01/04 01:07:45;;;;;;;1.60;1.17;;;;;;;7.41;94.25;99619.13;4996924;28;20085;-81
2022/01/04 01:10:29;;;;;;;1.70;1.55;;;;;;;7.34;94.48;99616.34;4998155;28;20100;-81
2022/01/04 01:12:57;;;;;;;2.25;1.55;;;;;;;7.36;94.46;99606.59;4998312;28;20537;-82
2022/01/04 01:15:24;;;;;;;2.25;1.50;;;;;;;7.34;94.73;99608.56;5002671;28;20085;-82
2022/01/04 01:17:51;;;;;;;4.50;1.90;;;;;;;7.41;94.93;99600.91;4996739;28;20074;-80
2022/01/04 01:20:18;;;;;;;3.38;1.90;;;;;;;7.29;94.83;99605.63;4997670;28;20149;-82
2022/01/04 01:22:45;;;;;;;2.03;1.40;;;;;;;7.21;95.38;99606.41;4998558;28;20208;-82
2022/01/04 01:25:13;;;;;;;2.72;1.50;;;;;;;7.17;95.17;99597.28;5002310;28;20089;-81
2022/01/04 01:27:40;;;;;;;2.50;1.33;;;;;;;7.15;95.98;99595.81;4998129;28;20053;-81
2022/01/04 01:30:09;;;;;;;3.00;1.60;;;;;;;7.14;96.07;99591.59;4996725;28;20061;-81
2022/01/04 01:32:36;;;;;;;2.83;1.70;;;;;;;7.10;96.14;99596.28;4998061;28;20505;-83
2022/01/04 01:35:03;;;;;;;3.65;1.48;;;;;;;7.17;95.88;99593.88;5000701;28;20140;-81
2022/01/04 01:37:30;;;;;;;2.08;1.30;;;;;;;7.20;95.74;99585.75;5000661;28;20130;-80
2022/01/04 01:39:57;;;;;;;2.95;1.73;;;;;;;7.21;95.73;99576.97;4996046;28;20523;-81
2022/01/04 01:42:23;;;;;;;4.97;1.77;;;;;;;7.26;95.88;99585.94;5003232;28;20456;-80
2022/01/04 01:44:51;;;;;;;2.17;1.65;;;;;;;7.32;95.50;99574.06;5003823;28;20082;-80
2022/01/04 01:47:19;;;;;;;1.88;1.45;;;;;;;7.29;95.33;99563.97;5002847;28;20073;-80
2022/01/04 01:49:45;;;;;;;2.63;1.70;;;;;;;7.16;95.51;99567.03;5001996;28;20476;-81
2022/01/04 01:52:12;;;;;;;2.45;1.70;;;;;;;7.15;96.10;99564.59;5001314;28;20433;-81
2022/01/04 01:54:39;;;;;;;1.80;1.38;;;;;;;7.17;96.30;99565.25;5000307;28;20113;-81
2022/01/04 01:57:06;;;;;;;2.15;1.48;;;;;;;7.13;95.92;99563.94;5001650;28;20077;-82
2022/01/04 01:59:33;;;;;;;1.67;1.33;;;;;;;7.13;95.94;99564.75;5005483;28;20107;-81
2022/01/04 02:02:00;;;;;;;4.70;2.00;;;;;;;7.15;96.04;99557.59;5009801;28;20054;-82
2022/01/04 02:04:28;;;;;;;3.03;1.60;;;;;;;7.18;96.09;99559.06;5009656;28;20046;-82
2022/01/04 02:06:55;;;;;;;2.25;1.27;;;;;;;7.07;96.29;99555.00;5009525;28;20114;-82
2022/01/04 02:09:22;;;;;;;1.65;1.52;;;;;;;7.07;96.60;99543.78;5009879;28;20489;-82
2022/01/04 02:11:49;;;;;;;2.08;1.60;;;;;;;7.10;96.33;99548.66;5009279;28;20065;-82
2022/01/04 02:14:18;;;;;;;1.67;1.55;;;;;;;6.96;96.50;99537.91;5008943;28;20046;-82
2022/01/04 02:16:44;;;;;;;2.67;1.50;;;;;;;7.12;96.59;99536.28;5005875;28;20085;-80
2022/01/04 02:19:11;;;;;;;1.80;1.42;;;;;;;7.07;96.47;99533.38;5004310;28;20491;-80
2022/01/04 02:21:39;;;;;;;1.63;1.20;;;;;;;7.14;96.27;99534.34;5004953;28;20118;-80
2022/01/04 02:24:06;;;;;;;1.67;1.45;;;;;;;7.13;96.26;99527.53;5004872;28;20113;-80
2022/01/04 02:26:33;;;;;;;2.25;1.33;;;;;;;7.08;96.51;99530.63;5005515;28;20133;-80
2022/01/04 02:29:01;;;;;;;2.25;1.67;;;;;;;7.07;96.33;99523.00;5005648;28;20050;-80
2022/01/04 02:31:28;;;;;;;2.38;1.77;;;;;;;7.03;96.73;99516.47;5006570;28;20054;-80
2022/01/04 02:33:55;;;;;;;2.83;1.65;;;;;;;7.07;96.80;99520.38;5005595;28;20054;-81
2022/01/04 02:36:21;;;;;;;2.42;1.38;;;;;;;7.08;96.50;99512.41;5006026;28;20513;-81
2022/01/04 02:38:52;;;;;;;2.33;1.25;;;;;;;7.05;96.92;99511.94;5004369;28;20046;-81
2022/01/04 02:41:18;;;;;;;1.48;1.38;;;;;;;6.99;97.09;99511.59;5005532;28;20062;-81
2022/01/04 02:43:45;;;;;;;1.75;1.30;;;;;;;7.07;97.03;99508.19;5002464;28;20111;-81
2022/01/04 02:46:12;;;;;;;1.50;1.08;;;;;;;7.06;96.62;99500.56;5001183;28;20625;-81
2022/01/04 02:48:43;;;;;;;2.00;1.42;;;;;;;7.03;96.83;99496.47;5001878;28;20053;-81
2022/01/04 02:51:09;;;;;;;2.40;1.52;;;;;;;7.03;96.92;99506.88;5001962;28;20046;-82
2022/01/04 02:53:36;;;;;;;2.15;1.48;;;;;;;6.88;96.87;99498.88;5001901;28;20046;-82
2022/01/04 02:56:05;;;;;;;2.20;1.48;;;;;;;6.98;96.97;99515.16;5003272;28;20129;-82
2022/01/04 02:58:31;;;;;;;2.92;1.83;;;;;;;7.07;96.82;99503.00;5003106;28;20059;-83
2022/01/04 03:00:58;;;;;;;1.90;1.67;;;;;;;7.05;96.99;99507.53;5004760;28;20141;-82
2022/01/04 03:03:25;;;;;;;1.25;1.05;;;;;;;6.99;96.98;99503.78;5004795;28;20069;-82
2022/01/04 03:05:51;;;;;;;2.40;1.70;;;;;;;7.01;97.16;99497.63;5003994;28;20050;-81
2022/01/04 03:08:18;;;;;;;1.83;1.33;;;;;;;6.99;97.08;99488.19;5002318;28;20177;-80
2022/01/04 03:10:45;;;;;;;1.13;1.08;;;;;;;7.00;96.55;99486.41;5000748;28;20053;-81
2022/01/04 03:13:13;;;;;;;3.65;1.67;;;;;;;7.03;96.79;99480.06;5002122;28;20153;-81
2022/01/04 03:15:40;;;;;;;1.38;1.15;;;;;;;7.03;96.79;99490.47;5003716;28;20054;-81
2022/01/04 03:18:07;;;;;;;1.25;1.15;;;;;;;7.06;96.93;99474.53;5004186;28;20489;-81
2022/01/04 03:20:33;;;;;;;2.33;1.42;;;;;;;6.94;96.96;99467.03;5004696;28;20093;-81
2022/01/04 03:23:00;;;;;;;2.90;1.55;;;;;;;6.94;96.89;99467.03;5005792;28;20082;-80
2022/01/04 03:25:27;;;;;;;2.92;1.40;;;;;;;6.91;97.24;99459.56;5011124;28;20442;-79
2022/01/04 03:27:54;;;;;;;2.58;1.88;;;;;;;6.94;97.23;99456.63;5004880;28;20543;-79
2022/01/04 03:30:22;;;;;;;2.35;1.60;;;;;;;6.86;97.25;99443.63;5005260;28;20058;-79
2022/01/04 03:32:49;;;;;;;2.97;1.63;;;;;;;6.82;97.11;99431.91;5001087;28;20085;-79
2022/01/04 03:37:47;;;;;;;2.13;1.77;;;;;;;6.87;97.03;99424.44;5037469;23;20105;-82
2022/01/04 03:40:14;;;;;;;3.08;1.90;;;;;;;6.74;97.59;99412.91;5001681;28;20407;-84
2022/01/04 03:42:41;;;;;;;2.35;1.52;;;;;;;6.85;97.29;99416.00;5003651;28;20186;-83
2022/01/04 03:45:09;;;;;;;2.30;1.40;;;;;;;6.93;97.55;99410.00;5004808;28;20085;-86
2022/01/04 03:47:37;;;;;;;2.25;1.73;;;;;;;6.85;97.45;99400.41;5003415;28;20137;-83
2022/01/04 03:50:04;;;;;;;2.38;1.73;;;;;;;6.81;97.60;99399.09;5005968;28;20114;-83
2022/01/04 03:52:31;;;;;;;2.10;1.55;;;;;;;6.89;97.96;99391.28;5006504;28;20205;-83
2022/01/04 03:54:58;;;;;;;2.97;1.80;;;;;;;6.83;97.60;99380.72;5005302;28;20106;-84
2022/01/04 03:57:24;;;;;;;3.08;1.88;;;;;;;6.85;97.85;99383.97;5005767;28;20082;-85
2022/01/04 03:59:51;;;;;;;1.55;1.42;;;;;;;6.93;97.73;99377.00;5006709;28;20085;-84
2022/01/04 04:02:17;;;;;;;3.45;1.80;;;;;;;6.95;97.04;99362.03;5005700;28;20046;-86
2022/01/04 04:04:45;;;;;;;3.38;1.75;;;;;;;6.87;97.52;99348.22;5001440;28;20085;-86
2022/01/04 04:07:12;;;;;;;2.80;1.77;;;;;;;6.80;97.61;99342.06;5003526;28;20185;-86
2022/01/04 04:09:39;;;;;;;3.17;2.00;;;;;;;6.75;97.89;99336.53;5008797;28;20054;-84
2022/01/04 04:12:07;;;;;;;2.67;2.25;;;;;;;6.71;98.04;99333.44;5011892;28;20081;-83
2022/01/04 04:14:33;;;;;;;2.92;2.40;;;;;;;6.72;98.31;99339.44;5005208;28;20110;-82
2022/01/04 04:17:00;;;;;;;6.15;2.53;;;;;;;6.74;98.44;99333.13;5004683;28;20082;-83
2022/01/04 04:19:27;;;;;;;4.03;2.22;;;;;;;6.63;98.25;99333.44;5003539;28;20477;-82
2022/01/04 04:21:54;;;;;;;4.05;2.40;;;;;;;6.60;98.65;99333.78;5003118;28;20065;-83
2022/01/04 04:24:21;;;;;;;4.68;2.45;;;;;;;6.59;98.73;99332.16;5002973;28;20081;-83
2022/01/04 04:26:48;;;;;;;6.07;2.97;;;;;;;6.62;98.89;99326.59;5003579;28;20063;-83
2022/01/04 04:29:14;;;;;;;3.83;2.67;;;;;;;6.64;98.91;99319.47;5003290;28;20112;-82
2022/01/04 04:31:41;;;;;;;3.67;2.67;;;;;;;6.72;98.39;99316.06;5003060;28;20571;-82
2022/01/04 04:34:08;;;;;;;4.93;3.22;;;;;;;6.70;98.58;99313.63;5004451;28;20133;-84
2022/01/04 04:36:34;;;;;;;4.80;3.20;;;;;;;6.70;98.73;99302.41;5004281;28;20504;-84
2022/01/04 04:39:03;;;;;;;4.00;3.00;;;;;;;6.75;98.89;99300.94;5002766;28;20109;-83
2022/01/04 04:41:29;;;;;;;4.80;3.35;;;;;;;6.73;98.40;99292.50;5003517;28;20078;-84
2022/01/04 04:43:56;;;;;;;4.93;3.05;;;;;;;6.66;98.95;99296.72;5003286;28;20184;-84
2022/01/04 04:46:22;;;;;;;4.68;3.35;;;;;;;6.72;98.91;99295.25;5003114;28;20092;-83
2022/01/04 04:48:49;;;;;;;6.15;3.30;;;;;;;6.75;98.83;99280.16;5002672;28;20054;-84
2022/01/04 04:51:16;;;;;;;4.32;3.60;;;;;;;6.76;98.85;99276.56;5003637;28;20106;-84
2022/01/04 04:53:42;;;;;;;6.03;3.92;;;;;;;6.78;98.70;99272.03;5002140;28;20134;-83
2022/01/04 04:56:10;;;;;;;8.52;3.80;;;;;;;6.78;98.71;99263.41;5002850;28;20074;-84
2022/01/04 04:58:37;;;;;;;4.65;3.70;;;;;;;6.79;98.27;99263.25;5002347;28;20569;-83
2022/01/04 05:01:04;;;;;;;5.88;3.55;;;;;;;6.71;98.91;99260.66;5002178;28;20054;-83
2022/01/04 05:03:30;;;;;;;5.10;3.85;;;;;;;6.79;98.33;99259.84;5002581;28;20142;-83
2022/01/04 05:05:57;;;;;;;5.55;3.72;;;;;;;6.74;98.21;99259.50;5002252;28;20081;-84
2022/01/04 05:08:23;;;;;;;5.20;3.83;;;;;;;6.70;97.99;99256.44;5002158;28;20106;-83
2022/01/04 05:10:50;;;;;;;7.15;4.25;;;;;;;6.64;98.52;99251.88;5002711;28;20106;-83
2022/01/04 05:13:18;;;;;;;6.53;4.45;;;;;;;6.63;98.46;99250.25;5002476;28;20078;-83
2022/01/04 05:15:44;;;;;;;6.10;4.28;;;;;;;6.65;98.23;99254.31;5002634;28;20078;-84
2022/01/04 05:18:11;;;;;;;6.38;4.35;;;;;;;6.66;98.60;99247.34;5003316;28;20082;-83
2022/01/04 05:20:38;;;;;;;7.75;4.55;;;;;;;6.78;98.15;99246.03;5004022;28;20054;-84
2022/01/04 05:23:04;;;;;;;8.18;4.28;;;;;;;6.80;98.24;99238.06;5004956;28;20428;-83
2022/01/04 05:25:31;;;;;;;5.18;4.03;;;;;;;6.71;98.39;99247.66;5001969;28;20096;-84
2022/01/04 05:27:57;;;;;;;8.63;4.63;;;;;;;6.71;98.42;99244.25;4999786;28;20171;-85
2022/01/04 05:30:25;;;;;;;6.10;4.32;;;;;;;6.59;98.11;99238.59;5000835;28;20073;-84
2022/01/04 05:32:52;;;;;;;8.02;4.20;;;;;;;6.71;98.69;99254.63;5005242;28;20110;-84
2022/01/04 05:35:19;;;;;;;9.77;4.57;;;;;;;6.75;98.31;99242.94;5001838;28;20112;-83
2022/01/04 05:37:45;;;;;;;6.63;4.40;;;;;;;6.77;98.18;99246.19;5000209;28;20556;-84
2022/01/04 05:40:12;;;;;;;5.78;4.65;;;;;;;6.66;98.32;99235.16;5001405;28;20176;-83
2022/01/04 05:42:39;;;;;;;6.95;4.25;;;;;;;6.68;98.80;99245.38;5002077;28;20133;-83
2022/01/04 05:45:07;;;;;;;6.55;4.55;;;;;;;6.73;98.14;99245.69;5001316;28;20070;-84
2022/01/04 05:47:35;;;;;;;7.80;4.22;;;;;;;6.65;98.13;99237.91;4999385;28;20137;-83
2022/01/04 05:50:01;;;;;;;6.65;3.72;;;;;;;6.63;98.71;99226.88;5000930;28;20146;-85
2022/01/04 05:52:28;;;;;;;6.15;3.70;;;;;;;6.59;98.36;99228.19;5004836;28;20090;-84
2022/01/04 05:54:55;;;;;;;4.35;3.30;;;;;;;6.56;98.81;99225.94;5002250;28;20129;-84
2022/01/04 05:57:21;;;;;;;4.03;3.00;;;;;;;6.65;98.36;99228.31;5001297;28;20054;-83
2022/01/04 05:59:48;;;;;;;3.85;2.60;;;;;;;6.66;98.11;99229.13;5002209;28;20111;-84
2022/01/04 06:02:14;;;;;;;4.35;3.03;;;;;;;6.63;98.00;99224.25;5002159;28;20699;-84
2022/01/04 06:04:42;;;;;;;5.70;2.95;;;;;;;6.57;98.36;99219.75;5001913;28;20094;-84
2022/01/04 06:07:10;;;;;;;3.35;2.63;;;;;;;6.70;98.44;99227.03;5001382;28;20610;-84
2022/01/04 06:09:43;;;;;;;4.75;2.85;;;;;;;6.68;98.03;99229.78;5000207;28;20137;-84
2022/01/04 06:14:51;;;;;;;5.32;2.70;;;;;;;6.78;98.04;99207.03;4999769;28;20082;-82
2022/01/04 06:17:19;;;;;;;3.85;2.85;;;;;;;6.66;97.91;99213.53;5001629;28;20054;-83
2022/01/04 06:19:47;;;;;;;4.18;2.67;;;;;;;6.63;98.00;99208.66;5002066;28;20177;-83
2022/01/04 06:22:13;;;;;;;4.82;3.47;;;;;;;6.66;98.02;99208.34;5000993;28;20157;-83
2022/01/04 06:24:40;;;;;;;5.53;3.47;;;;;;;6.64;98.12;99211.09;5000939;28;20141;-82
2022/01/04 06:27:08;;;;;;;6.85;3.88;;;;;;;6.61;98.22;99195.06;5000269;28;20137;-82
2022/01/04 06:29:36;;;;;;;7.15;5.10;;;;;;;6.61;98.53;99215.84;5000045;28;20050;-79
2022/01/04 06:32:03;;;;;;;6.50;4.97;;;;;;;6.62;98.69;99212.25;5011868;28;20078;-81
2022/01/04 06:34:30;;;;;;;8.48;6.10;;;;;;;6.65;98.17;99199.72;5013590;28;20054;-81
2022/01/04 06:36:58;;;;;;;10.35;7.25;;;;;;;6.68;98.71;99184.78;5020429;28;20049;-81
2022/01/04 06:39:25;;;;;;;8.75;6.93;;;;;;;6.60;98.27;99193.44;5021202;28;20081;-82
2022/01/04 06:41:52;;;;;;;8.52;6.75;;;;;;;6.68;98.25;99190.78;5019840;28;20100;-82
2022/01/04 06:44:18;;;;;;;13.18;7.10;;;;;;;6.56;98.40;99185.16;5019263;28;20676;-83
2022/01/04 06:46:46;;;;;;;10.65;7.45;;;;;;;6.59;98.67;99184.81;5020903;28;20081;-82
2022/01/04 06:49:13;;;;;;;11.02;7.35;;;;;;;6.63;98.53;99186.09;5021696;28;20056;-80
2022/01/04 06:51:40;;;;;;;9.30;7.40;;;;;;;6.62;99.00;99181.06;5022997;28;20061;-85
2022/01/04 06:54:22;;;;;;;15.20;9.90;;;;;;;6.65;98.57;99172.94;5004220;28;20138;-80
2022/01/04 06:56:49;;;;;;;12.38;8.98;;;;;;;6.63;98.65;99169.69;4995369;28;20062;-80
2022/01/04 06:59:17;;;;;;;9.85;7.82;;;;;;;6.65;98.68;99165.13;5001299;28;20053;-80
2022/01/04 07:01:44;;;;;;;11.93;8.02;;;;;;;6.54;98.41;99160.31;5001034;28;20246;-79
2022/01/04 07:04:11;;;;;;;9.52;7.93;;;;;;;6.45;98.58;99162.09;5000866;28;20050;-79
2022/01/04 07:06:38;;;;;;;10.38;8.10;;;;;;;6.52;99.00;99154.47;5000175;28;20117;-80
2022/01/04 07:09:06;;;;;;;11.35;8.23;;;;;;;6.54;98.75;99148.13;5000842;28;20054;-80
2022/01/04 07:11:35;;;;;;;9.65;8.23;;;;;;;6.61;98.93;99156.88;4996414;28;20062;-79
2022/01/04 07:14:03;;;;;;;15.35;11.75;;;;;;;6.64;98.75;99155.72;4972509;28;20142;-80
2022/01/04 07:16:30;;;;;;;12.05;9.95;;;;;;;6.68;98.45;99158.78;4990694;28;20129;-79
2022/01/04 07:18:58;;;;;;;13.73;12.27;;;;;;;6.61;98.24;99148.28;4993986;28;20081;-79
2022/01/04 07:21:30;;;;;;;13.20;9.77;;;;;;;6.61;98.54;99138.69;5001458;28;20085;-80
2022/01/04 07:23:57;;;;;;;11.80;9.70;;;;;;;6.68;98.69;99143.19;4982203;28;20050;-80
2022/01/04 07:26:24;;;;;;;19.55;17.48;;;;;;;6.66;98.37;99151.97;5000182;28;20050;-80
2022/01/04 07:28:53;;;;;;;14.80;12.25;;;;;;;6.58;98.75;99148.59;5001127;28;20056;-81
2022/01/04 07:31:22;;;;;;;17.98;12.40;;;;;;;6.62;98.45;99155.06;5002585;28;20058;-80
2022/01/04 07:33:54;;;;;;;13.77;11.23;;;;;;;6.53;98.89;99143.91;5002875;28;20129;-81
2022/01/04 07:36:30;;;;;;;12.98;10.32;;;;;;;6.60;98.77;99152.66;5001893;28;20075;-80
2022/01/04 07:38:57;;;;;;;13.15;9.88;;;;;;;6.63;99.12;99165.28;4999702;28;20062;-80
2022/01/04 07:41:24;;;;;;;12.52;9.95;;;;;;;6.73;98.52;99165.13;5001683;28;20057;-81
2022/01/04 07:43:52;;;;;;;12.27;9.50;;;;;;;6.74;98.33;99158.94;5001405;28;20424;-81
2022/01/04 07:46:21;;;;;;;16.10;10.80;;;;;;;6.67;98.73;99157.97;5001257;28;20520;-80
2022/01/04 07:48:49;;;;;;;11.90;10.13;;;;;;;6.72;98.72;99154.88;5001412;28;20100;-80
2022/01/04 07:51:17;;;;;;;14.25;11.07;;;;;;;6.70;98.47;99157.66;5001998;28;20142;-81
2022/01/04 07:53:44;;;;;;;13.57;10.70;;;;;;;6.66;98.88;99141.56;5001788;28;20088;-81
2022/01/04 07:56:11;;;;;;;17.77;11.32;;;;;;;6.75;98.44;99152.75;5001745;28;20050;-80
2022/01/04 07:58:37;;;;;;;12.95;10.80;;;;;;;6.78;98.38;99131.63;5000495;28;20065;-81
2022/01/04 08:01:05;;;;;;;12.50;11.13;;;;;;;6.64;98.31;99137.53;5002411;28;20086;-83
2022/01/04 08:03:32;;;;;;;14.75;11.75;;;;;;;6.58;99.21;99135.63;5002937;28;20157;-82
2022/01/04 08:05:59;;;;;;;14.38;11.57;;;;;;;6.59;98.61;99145.03;5001916;28;20057;-81
2022/01/04 08:08:27;;;;;;;18.70;12.07;;;;;;;6.47;98.87;99135.97;5001619;28;20060;-81
2022/01/04 08:10:54;;;;;;;15.20;11.52;;;;;;;6.49;99.17;99139.19;5001355;28;20113;-80
2022/01/04 08:13:20;;;;;;;14.02;11.52;;;;;;;6.53;99.28;99136.09;5001157;28;20133;-80
2022/01/04 08:15:47;;;;;;;13.20;10.20;;;;;;;6.56;98.77;99140.16;5000183;28;20100;-81
2022/01/04 08:18:15;;;;;;;16.90;10.50;;;;;;;6.54;98.65;99137.72;5000618;28;20421;-79
2022/01/04 08:20:42;;;;;;;12.35;9.85;;;;;;;6.49;98.92;99131.41;5000644;28;20057;-80
2022/01/04 08:23:09;;;;;;;11.32;9.90;;;;;;;6.64;99.16;99138.31;5000526;28;20137;-79
2022/01/04 08:25:35;;;;;;;14.57;10.68;;;;;;;6.65;99.12;99136.53;5000249;28;20437;-81
2022/01/04 08:28:02;;;;;;;11.23;9.32;;;;;;;6.67;98.72;99132.00;4999947;28;20050;-80
2022/01/04 08:30:29;;;;;;;13.68;9.43;;;;;;;6.77;98.53;99122.22;4999736;28;20051;-81
2022/01/04 08:32:58;;;;;;;13.60;9.27;;;;;;;6.58;98.29;99115.63;5000346;28;20057;-81
2022/01/04 08:35:26;;;;;;;14.85;8.98;;;;;;;6.66;98.97;99119.97;4999275;28;20047;-80
2022/01/04 08:37:52;;;;;;;9.90;7.97;;;;;;;6.67;98.58;99119.00;5000159;28;20113;-80
2022/01/04 08:40:20;;;;;;;10.15;7.82;;;;;;;6.58;98.69;99115.63;4998444;28;20129;-79
2022/01/04 08:42:47;;;;;;;10.52;7.38;;;;;;;6.63;98.65;99112.50;4999329;28;20106;-80
2022/01/04 08:45:14;;;;;;;11.73;8.02;;;;;;;6.71;98.62;99112.47;5000713;28;20046;-80
2022/01/04 08:47:41;;;;;;;10.98;8.60;;;;;;;6.67;98.75;99113.78;5002769;28;20059;-80
2022/01/04 08:50:11;;;;;;;9.32;7.45;;;;;;;6.74;98.90;99121.72;5000055;28;20042;-80
2022/01/04 08:52:41;;;;;;;14.52;7.72;;;;;;;6.69;99.03;99116.22;4999875;28;20078;-80
2022/01/04 08:55:09;;;;;;;12.63;8.05;;;;;;;6.78;98.50;99123.84;5000071;28;20077;-81
2022/01/04 08:57:35;;;;;;;10.68;8.25;;;;;;;6.84;98.42;99112.75;4999593;28;20141;-80
2022/01/04 09:00:03;;;;;;;9.60;7.75;;;;;;;6.84;98.57;99120.56;4999561;28;20537;-81
2022/01/04 09:02:31;;;;;;;11.70;8.43;;;;;;;6.85;98.53;99124.78;5000335;28;20054;-81
2022/01/04 09:04:59;;;;;;;13.68;9.25;;;;;;;6.89;98.41;99126.06;4999062;28;20113;-80
2022/01/04 09:07:29;;;;;;;15.73;8.80;;;;;;;6.86;98.05;99134.19;4998899;28;20073;-80
2022/01/04 09:09:57;;;;;;;15.73;9.65;;;;;;;6.82;98.68;99125.13;4997442;28;20454;-81
2022/01/04 09:12:27;;;;;;;17.25;11.90;;;;;;;6.86;98.16;99136.00;4997472;28;20113;-80
2022/01/04 09:14:59;;;;;;;14.18;10.75;;;;;;;6.87;98.15;99148.81;4998534;28;20080;-80
2022/01/04 09:20:13;;;;;;;12.88;10.13;;;;;;;6.90;98.43;99160.69;4998691;28;20572;-81
2022/01/04 09:22:43;;;;;;;13.05;8.90;;;;;;;6.99;98.59;99172.69;4999682;28;20532;-81
2022/01/04 09:25:11;;;;;;;10.93;8.70;;;;;;;6.95;98.30;99163.59;4998889;28;20109;-82
2022/01/04 09:27:39;;;;;;;12.20;8.52;;;;;;;6.97;98.11;99164.22;4998566;28;20058;-80
2022/01/04 09:30:07;;;;;;;13.25;8.90;;;;;;;6.98;98.15;99171.88;4997807;28;20057;-80
2022/01/04 09:32:35;;;;;;;12.55;8.73;;;;;;;6.99;98.03;99167.47;4997779;28;20133;-80
2022/01/04 09:35:04;;;;;;;14.60;9.93;;;;;;;7.02;97.90;99155.94;4999057;28;20050;-81
2022/01/04 09:37:30;;;;;;;13.25;8.85;;;;;;;6.93;97.69;99135.16;5002949;23;20571;-80
2022/01/04 09:39:57;;;;;;;11.65;9.43;;;;;;;6.82;98.44;99130.31;4973926;28;20165;-78
2022/01/04 09:42:25;;;;;;;15.68;11.68;;;;;;;6.97;98.17;99126.03;4974384;28;20093;-79
2022/01/04 09:44:52;;;;;;;12.32;10.02;;;;;;;7.08;98.10;99134.44;4975566;28;20109;-79
2022/01/04 09:47:19;;;;;;;15.18;11.05;;;;;;;7.14;98.06;99144.97;4974315;28;20046;-78
2022/01/04 09:49:45;;;;;;;13.23;10.55;;;;;;;7.17;98.05;99149.00;4974626;28;20138;-79
2022/01/04 09:52:15;;;;;;;13.07;9.50;;;;;;;7.28;97.42;99151.25;4975214;28;20568;-80
2022/01/04 09:54:42;;;;;;;13.13;9.27;;;;;;;7.15;96.89;99162.19;4975496;28;20055;-79
2022/01/04 09:57:08;;;;;;;11.73;8.95;;;;;;;7.15;96.99;99156.19;4976061;28;20146;-79
2022/01/04 09:59:36;;;;;;;13.85;8.63;;;;;;;7.18;96.77;99150.63;4976627;28;20090;-78
2022/01/04 10:02:14;;;;;;;12.60;8.43;;;;;;;7.19;97.07;99145.25;4978005;28;20129;-79
2022/01/04 10:04:40;;;;;;;11.80;8.23;;;;;;;7.28;96.80;99141.66;4978088;28;20082;-79
2022/01/04 10:07:08;;;;;;;12.00;8.52;;;;;;;7.28;95.93;99133.84;4976474;28;20113;-80
2022/01/04 10:09:38;;;;;;;10.57;7.95;;;;;;;7.28;95.73;99123.44;4975937;28;20133;-79
2022/01/04 10:12:07;;;;;;;9.43;7.40;;;;;;;7.21;96.10;99130.28;4976564;28;20051;-79
2022/01/04 10:14:38;;;;;;;11.65;9.35;;;;;;;7.28;96.37;99140.84;4976267;28;20058;-80
2022/01/04 10:17:07;;;;;;;11.32;8.50;;;;;;;7.32;96.28;99142.94;4975834;28;20050;-79
2022/01/04 10:19:36;;;;;;;10.57;7.95;;;;;;;7.38;96.38;99148.44;4973546;28;20050;-78
2022/01/04 10:22:28;;;;;;;12.85;8.57;;;;;;;7.43;95.96;99149.53;4977123;28;20481;-79
2022/01/04 10:25:13;;;;;;;12.52;9.23;;;;;;;7.32;95.92;99152.53;4958560;28;20055;-78
2022/01/04 10:27:41;;;;;;;11.43;8.25;;;;;;;7.29;95.93;99153.66;4978148;28;20138;-78
2022/01/04 10:30:20;;;;;;;12.02;8.50;;;;;;;7.25;95.90;99151.56;4976909;28;20433;-78
2022/01/04 10:32:49;;;;;;;12.40;8.43;;;;;;;7.17;96.13;99139.41;4977346;28;20151;-78
2022/01/04 10:35:33;;;;;;;11.75;8.90;;;;;;;7.25;95.40;99151.56;4977219;28;20061;-79
2022/01/04 10:38:02;;;;;;;12.48;8.40;;;;;;;7.44;95.09;99145.94;4977607;28;20146;-78
2022/01/04 10:40:30;;;;;;;13.93;9.10;;;;;;;7.32;95.30;99147.31;4976875;28;20511;-80
2022/01/04 10:43:08;;;;;;;16.75;8.90;;;;;;;7.31;94.99;99150.91;4978433;28;20074;-78
2022/01/04 10:45:36;;;;;;;12.45;8.05;;;;;;;7.13;95.53;99152.94;4978015;28;20137;-78
2022/01/04 10:48:19;;;;;;;15.07;8.25;;;;;;;7.17;95.64;99159.41;4978684;28;20121;-79
2022/01/04 10:50:47;;;;;;;13.82;7.25;;;;;;;7.10;95.73;99145.47;4980392;28;20240;-79
2022/01/04 10:53:19;;;;;;;11.18;6.75;;;;;;;7.07;95.67;99132.81;4979353;28;20590;-78
2022/01/04 10:55:49;;;;;;;11.73;6.30;;;;;;;7.07;96.02;99140.63;4977452;28;20129;-78
2022/01/04 10:58:29;;;;;;;8.98;5.70;;;;;;;7.12;95.94;99152.13;4978236;28;20050;-79
2022/01/04 11:00:58;;;;;;;13.80;5.57;;;;;;;7.15;95.28;99145.78;4980562;28;20097;-79
2022/01/04 11:03:28;;;;;;;11.70;5.38;;;;;;;7.15;95.80;99140.56;4979224;28;20051;-78
2022/01/04 11:05:58;;;;;;;9.88;5.05;;;;;;;7.17;95.83;99136.00;4980226;28;20149;-79
2022/01/04 11:08:25;;;;;;;8.15;5.22;;;;;;;7.23;95.67;99137.94;4980518;28;20145;-80
2022/01/04 11:10:53;;;;;;;11.65;5.68;;;;;;;7.27;95.54;99134.00;4979977;28;20050;-79
2022/01/04 11:13:20;;;;;;;11.32;5.75;;;;;;;7.23;95.91;99130.94;4979071;28;20428;-80
2022/01/04 11:15:46;;;;;;;9.55;6.13;;;;;;;7.18;96.04;99129.81;4978161;28;20125;-79
2022/01/04 11:18:14;;;;;;;7.97;5.32;;;;;;;7.17;95.98;99136.00;4977125;28;20054;-79
2022/01/04 11:20:44;;;;;;;8.65;5.55;;;;;;;7.26;95.67;99143.59;4977161;28;20133;-78
2022/01/04 11:23:13;;;;;;;10.82;5.47;;;;;;;7.23;95.21;99136.13;4976784;28;20134;-78
2022/01/04 11:25:44;;;;;;;9.68;5.57;;;;;;;7.18;95.78;99148.03;4976880;28;20051;-78
2022/01/04 11:28:14;;;;;;;7.40;5.50;;;;;;;7.18;95.53;99145.44;4977125;28;20055;-79
2022/01/04 11:30:51;;;;;;;8.73;5.85;;;;;;;7.20;95.46;99139.06;4977334;28;20141;-79
2022/01/04 11:33:27;;;;;;;6.93;5.20;;;;;;;7.24;94.88;99136.94;4975934;28;20059;-79
2022/01/04 11:35:55;;;;;;;7.55;5.03;;;;;;;7.20;95.03;99144.28;4985543;28;20082;-81
2022/01/04 11:38:33;;;;;;;8.15;5.32;;;;;;;7.21;94.91;99145.09;4982468;28;20078;-81
2022/01/04 11:40:59;;;;;;;6.78;5.00;;;;;;;7.29;94.56;99139.84;4982169;28;20446;-80
2022/01/04 11:43:31;;;;;;;10.75;5.75;;;;;;;7.27;94.85;99144.41;4980428;28;20106;-83
2022/01/04 11:45:58;;;;;;;7.35;5.75;;;;;;;7.28;95.00;99133.84;4980009;28;20485;-82
2022/01/04 11:48:28;;;;;;;7.75;5.50;;;;;;;7.24;94.66;99132.56;4979245;28;20051;-82
2022/01/04 11:50:56;;;;;;;10.27;6.85;;;;;;;7.35;94.45;99135.75;4978893;28;20078;-81
2022/01/04 11:53:23;;;;;;;7.30;5.18;;;;;;;7.41;94.69;99133.28;4979362;28;20101;-82